Time;durP1;ratioP1;P1;durP2;ratioP2;P2;SDS_P1;SDS_P2;PMS_P1;PMS_P2;Temp;Humidity;BMP_temperature;BMP_pressure;BME280_temperature;BME280_humidity;BME280_pressure;Samples;Min_cycle;Max_cycle;Signal;HPM_P1;HPM_P2
2023/11/06 00:01:26;;;;;;;10.95;1.98;;;;;;;6.63;100.00;97949.28;4954583;28;20051;-90
2023/11/06 00:03:52;;;;;;;11.02;1.60;;;;;;;6.61;100.00;97953.88;4940215;28;20730;-90
2023/11/06 00:06:17;;;;;;;9.13;1.15;;;;;;;6.62;100.00;97957.31;4938467;28;20050;-96
2023/11/06 00:08:44;;;;;;;12.98;2.05;;;;;;;6.60;100.00;97957.50;4941249;28;20039;-96
2023/11/06 00:11:10;;;;;;;8.13;2.08;;;;;;;6.61;100.00;97961.75;4944924;28;20042;-96
2023/11/06 00:13:36;;;;;;;13.15;1.35;;;;;;;6.62;100.00;97963.41;4939137;28;20039;-96
2023/11/06 00:16:02;;;;;;;5.22;1.27;;;;;;;6.64;100.00;97963.22;4938637;28;20035;-95
2023/11/06 00:18:29;;;;;;;10.75;1.58;;;;;;;6.65;100.00;97973.53;4944862;28;20061;-95
2023/11/06 00:20:58;;;;;;;10.88;1.55;;;;;;;6.60;100.00;97960.13;4924753;28;20038;-96
2023/11/06 00:23:24;;;;;;;9.40;1.17;;;;;;;6.62;100.00;97966.03;4936297;28;20031;-96
2023/11/06 00:25:50;;;;;;;13.70;1.45;;;;;;;6.67;100.00;97978.59;4951935;28;20034;-91
2023/11/06 00:28:15;;;;;;;7.15;0.80;;;;;;;6.61;100.00;97974.88;4952528;28;20039;-91
2023/11/06 00:30:41;;;;;;;11.18;1.50;;;;;;;6.61;100.00;97971.44;4952257;28;20101;-95
2023/11/06 00:33:07;;;;;;;11.10;1.27;;;;;;;6.66;100.00;97976.97;4955967;28;20089;-96
2023/11/06 00:35:33;;;;;;;14.65;1.33;;;;;;;6.65;100.00;97983.22;4923670;29;20555;-96
2023/11/06 00:37:59;;;;;;;8.90;1.60;;;;;;;6.63;100.00;97974.69;4939281;28;20034;-96
2023/11/06 00:40:25;;;;;;;9.68;1.25;;;;;;;6.66;100.00;97977.78;4942546;28;20039;-96
2023/11/06 00:42:57;;;;;;;13.30;2.20;;;;;;;6.67;100.00;97978.59;4929777;28;20074;-96
2023/11/06 00:45:24;;;;;;;8.40;1.52;;;;;;;6.72;100.00;97991.19;4929584;28;20039;-96
2023/11/06 00:47:53;;;;;;;14.18;1.67;;;;;;;6.69;100.00;97989.72;4924571;28;20039;-96
2023/11/06 00:50:18;;;;;;;7.78;1.17;;;;;;;6.69;100.00;97994.97;4943176;28;20038;-96
2023/11/06 00:52:48;;;;;;;6.97;0.90;;;;;;;6.69;100.00;97971.34;4928574;28;20051;-96
2023/11/06 00:55:15;;;;;;;10.63;2.40;;;;;;;6.65;100.00;97984.03;4937707;28;20364;-96
2023/11/06 00:57:49;;;;;;;11.20;1.95;;;;;;;6.75;100.00;97986.41;4954862;28;20047;-96
2023/11/06 01:00:23;;;;;;;6.38;0.85;;;;;;;6.67;100.00;97981.22;4945172;28;20042;-96
2023/11/06 01:02:52;;;;;;;7.32;1.08;;;;;;;6.65;100.00;97981.41;4939885;28;20046;-95
2023/11/06 01:05:32;;;;;;;;;;;;;;;;;;;;;
2023/11/06 01:08:01;;;;;;;5.85;0.90;;;;;;;6.74;100.00;97990.00;4938361;28;20051;-95
2023/11/06 01:10:30;;;;;;;10.30;1.00;;;;;;;6.68;100.00;97980.22;4943140;28;20815;-96
2023/11/06 01:12:59;;;;;;;8.68;1.38;;;;;;;6.74;100.00;97987.38;4955436;28;20073;-96
2023/11/06 01:15:32;;;;;;;6.32;1.08;;;;;;;6.77;100.00;97992.28;4942259;29;20039;-90
2023/11/06 01:18:05;;;;;;;6.60;1.15;;;;;;;6.77;100.00;97994.91;4953965;28;20086;-89
2023/11/06 01:20:36;;;;;;;9.38;0.90;;;;;;;6.76;100.00;98010.81;4954756;28;20545;-90
2023/11/06 01:23:07;;;;;;;6.90;0.95;;;;;;;6.78;100.00;98008.84;4949158;28;20034;-90
2023/11/06 01:25:42;;;;;;;13.73;2.42;;;;;;;6.79;100.00;98005.22;4940083;28;20904;-96
2023/11/06 01:28:11;;;;;;;6.60;1.02;;;;;;;6.76;100.00;98008.19;4942814;28;20047;-96
2023/11/06 01:30:40;;;;;;;4.93;0.73;;;;;;;6.76;100.00;98010.81;4953651;28;20539;-96
2023/11/06 01:33:06;;;;;;;4.57;0.88;;;;;;;6.72;100.00;98005.13;4943734;28;20093;-96
2023/11/06 01:35:37;;;;;;;6.57;1.00;;;;;;;6.72;100.00;98014.81;4924465;28;20606;-96
2023/11/06 01:38:08;;;;;;;6.97;1.30;;;;;;;6.78;100.00;98011.47;4922268;28;20106;-96
2023/11/06 01:40:44;;;;;;;6.63;0.85;;;;;;;6.78;100.00;98019.34;4952639;28;20088;-96
2023/11/06 01:43:24;;;;;;;6.85;0.80;;;;;;;6.80;100.00;98026.03;4948541;28;20130;-95
2023/11/06 01:45:56;;;;;;;9.98;0.95;;;;;;;6.78;100.00;98029.84;4939309;28;20048;-96
2023/11/06 01:48:27;;;;;;;8.82;1.23;;;;;;;6.79;100.00;98024.41;4921404;28;21089;-95
2023/11/06 01:50:53;;;;;;;5.35;0.82;;;;;;;6.78;100.00;98037.72;4939294;28;20118;-95
2023/11/06 01:53:32;;;;;;;9.10;0.80;;;;;;;6.72;100.00;98034.00;4941700;28;20046;-96
2023/11/06 01:56:01;;;;;;;3.83;0.60;;;;;;;6.74;100.00;98039.06;4943449;28;20059;-96
2023/11/06 01:58:32;;;;;;;3.78;0.50;;;;;;;6.69;100.00;98034.34;4929824;28;20054;-95
2023/11/06 02:01:01;;;;;;;4.95;0.77;;;;;;;6.74;100.00;98033.81;4921980;28;20383;-90
2023/11/06 02:03:28;;;;;;;6.70;1.08;;;;;;;6.71;100.00;98029.75;4966330;28;20035;-90
2023/11/06 02:06:08;;;;;;;;;;;;;;;;;;;;;
2023/11/06 02:08:39;;;;;;;10.85;0.98;;;;;;;6.73;100.00;98047.94;4955470;28;20035;-96
2023/11/06 02:11:10;;;;;;;8.80;1.10;;;;;;;6.69;100.00;98050.94;4927251;28;20046;-95
2023/11/06 02:13:38;;;;;;;7.07;1.00;;;;;;;6.68;100.00;98048.47;4940028;28;20039;-96
2023/11/06 02:16:11;;;;;;;5.05;1.60;;;;;;;6.71;100.00;98048.13;4924436;28;20045;-96
2023/11/06 02:18:38;;;;;;;9.07;0.70;;;;;;;6.76;100.00;98052.84;4926853;28;20027;-96
2023/11/06 02:21:05;;;;;;;7.18;1.27;;;;;;;6.83;100.00;98072.16;4922563;29;20476;-96
2023/11/06 02:23:31;;;;;;;8.18;1.08;;;;;;;6.83;100.00;98070.31;4940883;28;20035;-95
2023/11/06 02:25:57;;;;;;;6.28;0.73;;;;;;;6.87;100.00;98062.09;4939605;28;20503;-95
2023/11/06 02:28:23;;;;;;;6.70;0.80;;;;;;;6.86;100.00;98071.78;4941652;28;20042;-96
2023/11/06 02:30:52;;;;;;;7.57;1.00;;;;;;;6.89;100.00;98076.69;4930454;28;20043;-96
2023/11/06 02:33:21;;;;;;;6.75;1.33;;;;;;;6.93;100.00;98077.13;4933792;28;20083;-96
2023/11/06 02:35:50;;;;;;;11.07;1.85;;;;;;;6.91;100.00;98081.75;4952672;28;20039;-96
2023/11/06 02:38:15;;;;;;;8.27;1.02;;;;;;;6.89;100.00;98084.56;4934718;28;20035;-96
2023/11/06 02:40:42;;;;;;;13.13;0.70;;;;;;;6.96;100.00;98097.75;4936740;28;20035;-96
2023/11/06 02:43:08;;;;;;;9.02;1.65;;;;;;;6.97;100.00;98099.41;4923556;28;20472;-96
2023/11/06 02:45:33;;;;;;;5.57;0.73;;;;;;;6.96;100.00;98105.66;4951758;28;20039;-96
2023/11/06 02:47:59;;;;;;;3.90;1.42;;;;;;;6.93;100.00;98098.13;4937782;29;20057;-96
2023/11/06 02:50:26;;;;;;;4.10;1.02;;;;;;;6.91;100.00;98106.19;4934864;28;20031;-96
2023/11/06 02:52:55;;;;;;;9.10;0.75;;;;;;;6.95;100.00;98099.59;4922806;29;20035;-96
2023/11/06 02:55:21;;;;;;;5.85;1.27;;;;;;;6.95;100.00;98099.59;4935638;29;20123;-96
2023/11/06 02:57:47;;;;;;;10.32;1.38;;;;;;;7.00;100.00;98112.19;4927051;29;20481;-95
2023/11/06 03:00:13;;;;;;;10.73;1.02;;;;;;;6.99;100.00;98099.25;4934638;29;20047;-96
2023/11/06 03:02:40;;;;;;;6.03;0.98;;;;;;;7.03;100.00;98101.31;4919884;29;20039;-96
2023/11/06 03:05:06;;;;;;;7.13;1.00;;;;;;;7.01;100.00;98111.19;4916389;29;20028;-96
2023/11/06 03:07:33;;;;;;;9.02;1.00;;;;;;;7.02;100.00;98114.63;4930111;29;20040;-96
2023/11/06 03:10:00;;;;;;;7.97;0.70;;;;;;;7.02;100.00;98112.84;4949786;29;20047;-96
2023/11/06 03:12:25;;;;;;;7.55;0.90;;;;;;;7.01;100.00;98115.63;4945457;29;20055;-96
2023/11/06 03:14:54;;;;;;;8.38;1.27;;;;;;;7.02;100.00;98120.72;4917961;29;20653;-96
2023/11/06 03:17:20;;;;;;;8.48;1.02;;;;;;;7.01;100.00;98119.06;4915612;29;20036;-96
2023/11/06 03:19:46;;;;;;;17.35;1.00;;;;;;;7.04;100.00;98125.78;4918270;29;20437;-96
2023/11/06 03:22:12;;;;;;;10.48;1.23;;;;;;;7.07;100.00;98125.44;4919196;29;20489;-96
2023/11/06 03:24:39;;;;;;;11.85;1.67;;;;;;;7.11;100.00;98128.50;4912964;29;20039;-96
2023/11/06 03:27:05;;;;;;;11.10;1.75;;;;;;;7.12;100.00;98130.16;4930256;29;20090;-96
2023/11/06 03:29:30;;;;;;;11.27;1.25;;;;;;;7.10;100.00;98125.06;4923793;29;20055;-96
2023/11/06 03:31:56;;;;;;;10.82;1.83;;;;;;;7.11;100.00;98137.19;4928027;29;20381;-96
2023/11/06 03:34:23;;;;;;;13.38;1.92;;;;;;;7.14;100.00;98136.84;4933654;29;20492;-96
2023/11/06 03:36:50;;;;;;;8.07;1.30;;;;;;;7.18;100.00;98137.31;4916304;29;20071;-95
2023/11/06 03:39:16;;;;;;;14.63;1.33;;;;;;;7.21;100.00;98139.56;4906165;29;20040;-96
2023/11/06 03:41:43;;;;;;;10.60;1.10;;;;;;;7.25;100.00;98134.75;4948321;29;20073;-95
2023/11/06 03:44:10;;;;;;;17.77;1.83;;;;;;;7.25;100.00;98146.09;4919842;29;20119;-96
2023/11/06 03:46:36;;;;;;;11.05;1.17;;;;;;;7.27;100.00;98136.22;4918675;29;20486;-96
2023/11/06 03:49:06;;;;;;;11.32;1.33;;;;;;;7.30;100.00;98130.59;4919715;29;20067;-96
2023/11/06 03:51:32;;;;;;;10.52;1.40;;;;;;;7.27;100.00;98132.78;4951322;29;20039;-96
2023/11/06 03:53:58;;;;;;;5.88;1.30;;;;;;;7.27;100.00;98133.59;4939243;29;20053;-96
2023/11/06 03:56:24;;;;;;;13.85;2.08;;;;;;;7.27;100.00;98136.22;4943276;29;20679;-96
2023/11/06 03:58:49;;;;;;;16.20;1.52;;;;;;;7.25;100.00;98132.13;4927089;29;20032;-96
2023/11/06 04:01:15;;;;;;;12.38;1.35;;;;;;;7.27;100.00;98144.09;4920658;29;20073;-95
2023/11/06 04:03:41;;;;;;;15.60;1.60;;;;;;;7.24;100.00;98141.84;4912434;29;20039;-96
2023/11/06 04:06:08;;;;;;;13.57;1.88;;;;;;;7.25;100.00;98146.09;4922095;29;20042;-96
2023/11/06 04:08:35;;;;;;;9.65;1.48;;;;;;;7.25;100.00;98140.00;4930871;29;20155;-96
2023/11/06 04:11:01;;;;;;;14.57;3.03;;;;;;;7.24;100.00;98148.91;4931188;29;20027;-96
2023/11/06 04:13:27;;;;;;;16.02;1.70;;;;;;;7.25;100.00;98156.59;4954149;29;20039;-96
2023/11/06 04:15:52;;;;;;;8.77;1.20;;;;;;;7.26;100.00;98141.66;4938806;29;20031;-96
2023/11/06 04:18:18;;;;;;;18.52;1.73;;;;;;;7.24;100.00;98156.78;4937758;29;20170;-96
2023/11/06 04:20:44;;;;;;;7.55;1.10;;;;;;;7.18;100.00;98155.69;4932606;29;20052;-96
2023/11/06 04:23:18;;;;;;;10.27;1.10;;;;;;;7.22;100.00;98161.38;4920094;29;20039;-95
2023/11/06 04:25:50;;;;;;;13.50;1.55;;;;;;;7.15;100.00;98170.00;4945407;29;20468;-96
2023/11/06 04:28:16;;;;;;;9.40;1.42;;;;;;;7.13;100.00;98174.63;4949209;28;20046;-96
2023/11/06 04:30:43;;;;;;;18.65;1.90;;;;;;;7.12;100.00;98172.19;4956000;29;20035;-96
2023/11/06 04:33:09;;;;;;;16.67;1.77;;;;;;;7.16;100.00;98189.22;4934047;29;20055;-96
2023/11/06 04:35:35;;;;;;;11.82;1.73;;;;;;;7.16;100.00;98183.94;4918629;29;20056;-96
2023/11/06 04:38:01;;;;;;;10.98;1.42;;;;;;;7.16;100.00;98186.59;4941648;29;20473;-96
2023/11/06 04:40:28;;;;;;;8.10;1.40;;;;;;;7.14;100.00;98186.75;4938428;28;20125;-95
2023/11/06 04:42:54;;;;;;;12.77;1.60;;;;;;;7.15;100.00;98188.38;4933759;29;20033;-95
2023/11/06 04:45:19;;;;;;;12.60;1.88;;;;;;;7.14;100.00;98199.06;4930908;29;20031;-95
2023/11/06 04:47:45;;;;;;;12.27;1.65;;;;;;;7.15;100.00;98198.09;4941578;29;20034;-96
2023/11/06 04:50:12;;;;;;;14.77;1.83;;;;;;;7.11;100.00;98200.25;4941022;29;20444;-96
2023/11/06 04:52:38;;;;;;;16.35;1.50;;;;;;;7.15;100.00;98200.72;4936211;29;20060;-95
2023/11/06 04:55:05;;;;;;;16.42;3.38;;;;;;;7.14;100.00;98204.31;4938170;29;20134;-96
2023/11/06 04:57:31;;;;;;;18.15;1.95;;;;;;;7.12;100.00;98204.50;4951842;29;20492;-96
2023/11/06 04:59:57;;;;;;;19.02;11.00;;;;;;;7.12;100.00;98209.75;4948351;29;20078;-95
2023/11/06 05:02:26;;;;;;;16.52;2.42;;;;;;;7.15;100.00;98212.03;4937497;29;20496;-95
2023/11/06 05:04:52;;;;;;;12.20;1.75;;;;;;;7.07;100.00;98206.88;4935229;29;20032;-95
2023/11/06 05:07:17;;;;;;;15.50;1.48;;;;;;;7.05;100.00;98208.84;4937914;29;20563;-96
2023/11/06 05:09:43;;;;;;;11.68;1.40;;;;;;;7.03;100.00;98203.75;4921259;29;20032;-96
2023/11/06 05:12:10;;;;;;;17.38;1.70;;;;;;;7.05;100.00;98203.59;4927712;29;20035;-96
2023/11/06 05:14:36;;;;;;;11.48;2.05;;;;;;;7.07;100.00;98212.13;4944250;29;20086;-95
2023/11/06 05:17:02;;;;;;;14.95;2.03;;;;;;;7.02;100.00;98209.19;4946990;29;20480;-96
2023/11/06 05:19:29;;;;;;;7.30;1.33;;;;;;;7.01;100.00;98210.16;4931380;29;20050;-96
2023/11/06 05:21:55;;;;;;;9.55;2.45;;;;;;;7.00;100.00;98214.63;4933567;29;20421;-90
2023/11/06 05:24:23;;;;;;;25.77;2.08;;;;;;;6.98;100.00;98213.16;4935860;29;20035;-90
2023/11/06 05:26:49;;;;;;;13.23;1.85;;;;;;;6.99;100.00;98214.81;4918844;29;20035;-96
2023/11/06 05:29:15;;;;;;;10.60;1.38;;;;;;;6.95;100.00;98224.84;4951926;28;20035;-95
2023/11/06 05:31:41;;;;;;;22.00;2.45;;;;;;;6.92;100.00;98223.38;4934664;29;20300;-96
2023/11/06 05:34:07;;;;;;;9.25;1.15;;;;;;;6.91;100.00;98221.75;4931701;29;20471;-96
2023/11/06 05:36:33;;;;;;;13.40;0.93;;;;;;;6.89;100.00;98233.41;4931811;29;20079;-90
2023/11/06 05:38:59;;;;;;;14.70;1.67;;;;;;;6.87;100.00;98232.78;4930872;29;20527;-90
2023/11/06 05:41:25;;;;;;;11.60;0.93;;;;;;;6.85;100.00;98229.53;4947397;29;20484;-96
2023/11/06 05:43:51;;;;;;;9.55;1.45;;;;;;;6.85;100.00;98235.56;4924287;29;20130;-96
2023/11/06 05:46:17;;;;;;;11.27;1.30;;;;;;;6.82;100.00;98223.63;4930892;29;20046;-96
2023/11/06 05:48:42;;;;;;;14.32;3.08;;;;;;;6.81;100.00;98229.88;4921860;29;20070;-95
2023/11/06 05:51:08;;;;;;;14.20;1.27;;;;;;;6.80;100.00;98238.72;4934398;29;20095;-96
2023/11/06 05:53:34;;;;;;;13.63;1.45;;;;;;;6.81;100.00;98240.38;4960405;28;20082;-96
2023/11/06 05:56:00;;;;;;;12.70;1.80;;;;;;;6.83;100.00;98251.50;4918756;29;20495;-90
2023/11/06 05:58:25;;;;;;;12.45;1.48;;;;;;;6.85;100.00;98248.69;4917840;29;20453;-90
2023/11/06 06:00:51;;;;;;;13.57;1.40;;;;;;;6.88;100.00;98261.47;4945740;29;20119;-96
2023/11/06 06:03:18;;;;;;;8.75;1.10;;;;;;;6.89;100.00;98260.50;4917528;29;20496;-96
2023/11/06 06:05:44;;;;;;;11.93;1.52;;;;;;;6.93;100.00;98259.16;4916644;29;20067;-95
2023/11/06 06:08:15;;;;;;;13.68;1.58;;;;;;;7.01;100.00;98260.91;4923135;29;20067;-95
2023/11/06 06:10:40;;;;;;;9.27;1.63;;;;;;;6.99;100.00;98257.63;4947748;29;20063;-95
2023/11/06 06:13:06;;;;;;;12.57;1.02;;;;;;;7.04;100.00;98267.63;4921373;29;20039;-96
2023/11/06 06:15:32;;;;;;;10.10;1.23;;;;;;;7.06;100.00;98270.88;4924015;29;20040;-96
2023/11/06 06:17:58;;;;;;;11.55;1.27;;;;;;;7.07;100.00;98268.09;4921960;29;20046;-96
2023/11/06 06:20:24;;;;;;;11.25;1.90;;;;;;;7.12;100.00;98264.13;4919055;29;20413;-91
2023/11/06 06:22:50;;;;;;;12.98;1.35;;;;;;;7.18;100.00;98266.06;4917309;29;20035;-90
2023/11/06 06:25:16;;;;;;;9.23;1.05;;;;;;;7.21;100.00;98268.31;4915238;29;20036;-90
2023/11/06 06:27:42;;;;;;;15.15;1.20;;;;;;;7.26;100.00;98273.84;4912009;29;20079;-96
2023/11/06 06:30:09;;;;;;;16.75;5.18;;;;;;;7.30;100.00;98274.31;4905074;29;20456;-96
2023/11/06 06:32:35;;;;;;;8.15;1.80;;;;;;;7.28;100.00;98268.41;4918418;29;20047;-95
2023/11/06 06:35:04;;;;;;;10.55;2.17;;;;;;;7.32;100.00;98274.97;4903702;29;20032;-95
2023/11/06 06:37:30;;;;;;;17.10;1.88;;;;;;;7.29;100.00;98285.84;4916286;29;20131;-96
2023/11/06 06:39:56;;;;;;;11.90;1.40;;;;;;;7.28;100.00;98278.91;4926138;29;20482;-94
2023/11/06 06:42:22;;;;;;;11.00;1.08;;;;;;;7.26;100.00;98289.59;4932524;29;20039;-96
2023/11/06 06:44:48;;;;;;;15.80;2.00;;;;;;;7.25;100.00;98287.97;4939025;29;20063;-95
2023/11/06 06:47:14;;;;;;;11.95;1.48;;;;;;;7.23;100.00;98300.47;4915930;29;20521;-96
2023/11/06 06:49:40;;;;;;;15.85;1.60;;;;;;;7.22;100.00;98304.09;4913144;29;20035;-95
2023/11/06 06:52:10;;;;;;;12.85;1.70;;;;;;;7.31;100.00;98308.31;4919615;29;20071;-96
2023/11/06 06:54:37;;;;;;;10.20;1.02;;;;;;;7.28;100.00;98310.44;4938774;28;20382;-95
2023/11/06 06:57:03;;;;;;;12.57;2.58;;;;;;;7.28;100.00;98308.66;4947202;28;20042;-96
2023/11/06 06:59:29;;;;;;;7.82;2.13;;;;;;;7.26;100.00;98313.25;4921818;29;20046;-96
2023/11/06 07:01:56;;;;;;;7.45;1.35;;;;;;;7.27;100.00;98317.53;4922160;29;20081;-90
2023/11/06 07:04:22;;;;;;;12.30;1.08;;;;;;;7.22;100.00;98313.78;4935876;29;20039;-90
2023/11/06 07:06:48;;;;;;;14.48;1.17;;;;;;;7.19;100.00;98326.31;4955808;28;20027;-96
2023/11/06 07:09:13;;;;;;;9.57;1.17;;;;;;;7.12;100.00;98330.59;4934591;29;20043;-96
2023/11/06 07:11:39;;;;;;;12.57;1.73;;;;;;;7.03;100.00;98339.53;4910568;29;20027;-96
2023/11/06 07:14:05;;;;;;;11.02;1.35;;;;;;;6.98;100.00;98352.34;4928634;29;20038;-96
2023/11/06 07:16:31;;;;;;;9.38;1.45;;;;;;;6.94;100.00;98344.81;4931594;28;20090;-96
2023/11/06 07:18:57;;;;;;;6.65;0.68;;;;;;;6.92;100.00;98348.63;4926209;29;20152;-96
2023/11/06 07:21:23;;;;;;;8.65;1.10;;;;;;;6.89;100.00;98351.59;4926382;29;20035;-95
2023/11/06 07:23:49;;;;;;;12.27;1.75;;;;;;;6.93;100.00;98356.31;4935617;29;20039;-95
2023/11/06 07:26:15;;;;;;;8.00;1.17;;;;;;;6.96;100.00;98349.91;4961093;28;20043;-95
2023/11/06 07:28:41;;;;;;;10.80;1.23;;;;;;;6.98;100.00;98354.97;4952270;29;20031;-95
2023/11/06 07:31:07;;;;;;;15.13;3.03;;;;;;;7.00;100.00;98351.22;4937772;29;20062;-90
2023/11/06 07:33:33;;;;;;;10.07;1.42;;;;;;;7.07;100.00;98356.59;4912055;29;20086;-93
2023/11/06 07:35:58;;;;;;;13.70;1.70;;;;;;;7.09;100.00;98356.44;4930879;29;20083;-95
2023/11/06 07:38:24;;;;;;;10.30;1.20;;;;;;;7.14;100.00;98362.78;4926565;29;20039;-94
2023/11/06 07:40:50;;;;;;;8.30;1.35;;;;;;;7.19;100.00;98362.25;4942060;29;20044;-96
2023/11/06 07:43:16;;;;;;;15.45;2.42;;;;;;;7.21;100.00;98368.16;4913399;29;20048;-96
2023/11/06 07:45:42;;;;;;;9.63;2.17;;;;;;;7.25;100.00;98366.00;4936034;29;20083;-96
2023/11/06 07:48:08;;;;;;;7.38;0.90;;;;;;;7.26;100.00;98378.94;4912104;29;20070;-95
2023/11/06 07:50:34;;;;;;;12.80;2.42;;;;;;;7.29;100.00;98381.22;4922273;29;20046;-96
2023/11/06 07:53:01;;;;;;;11.90;1.10;;;;;;;7.33;100.00;98379.09;4933501;29;20550;-96
2023/11/06 07:55:27;;;;;;;8.02;1.30;;;;;;;7.35;100.00;98378.91;4930061;28;20074;-95
2023/11/06 07:57:53;;;;;;;17.85;1.42;;;;;;;7.37;100.00;98376.94;4920351;28;20070;-96
2023/11/06 08:00:19;;;;;;;13.80;1.73;;;;;;;7.39;100.00;98374.94;4922133;29;20034;-94
2023/11/06 08:02:45;;;;;;;21.95;2.65;;;;;;;7.42;100.00;98375.41;4932082;28;20677;-96
2023/11/06 08:05:10;;;;;;;14.13;3.85;;;;;;;7.46;100.00;98383.75;4935857;28;20039;-95
2023/11/06 08:07:38;;;;;;;9.80;1.23;;;;;;;7.47;100.00;98382.75;4938039;28;20047;-96
2023/11/06 08:10:14;;;;;;;13.10;1.77;;;;;;;7.55;100.00;98382.72;4924065;28;20123;-95
2023/11/06 08:12:41;;;;;;;15.05;2.85;;;;;;;7.54;100.00;98391.59;4935813;28;20035;-96
2023/11/06 08:15:10;;;;;;;18.33;2.30;;;;;;;7.60;100.00;98400.59;4932818;28;20447;-96
2023/11/06 08:17:36;;;;;;;14.02;1.63;;;;;;;7.61;100.00;98404.03;4946996;28;20079;-96
2023/11/06 08:20:03;;;;;;;8.13;1.25;;;;;;;7.65;100.00;98400.06;4946611;28;20047;-95
2023/11/06 08:22:31;;;;;;;17.83;2.05;;;;;;;7.65;100.00;98400.06;4937343;28;20039;-89
2023/11/06 08:24:57;;;;;;;15.02;1.60;;;;;;;7.71;100.00;98416.97;4948523;28;20031;-90
2023/11/06 08:27:23;;;;;;;13.48;1.95;;;;;;;7.72;100.00;98421.22;4941344;28;20471;-95
2023/11/06 08:29:49;;;;;;;9.75;1.63;;;;;;;7.77;100.00;98426.78;4925317;28;20035;-96
2023/11/06 08:32:15;;;;;;;11.20;2.53;;;;;;;7.78;100.00;98426.59;4937256;29;20079;-90
2023/11/06 08:34:42;;;;;;;4.75;0.85;;;;;;;7.82;100.00;98432.28;4935883;29;20035;-91
2023/11/06 08:37:10;;;;;;;8.27;1.20;;;;;;;7.79;100.00;98424.75;4935725;29;20046;-96
2023/11/06 08:39:43;;;;;;;8.50;1.38;;;;;;;7.80;100.00;98435.09;4937923;28;20137;-95
2023/11/06 08:42:13;;;;;;;9.40;0.98;;;;;;;7.79;100.00;98443.16;4934515;29;20058;-96
2023/11/06 08:44:43;;;;;;;7.80;1.05;;;;;;;7.77;100.00;98432.81;4947015;28;20035;-96
2023/11/06 08:47:09;;;;;;;12.02;1.80;;;;;;;7.78;100.00;98445.00;4939604;28;20035;-89
2023/11/06 08:49:36;;;;;;;8.65;1.42;;;;;;;7.78;100.00;98446.81;4936477;29;20110;-91
2023/11/06 08:52:02;;;;;;;11.07;2.28;;;;;;;7.80;100.00;98450.09;4935550;28;20117;-88
2023/11/06 08:54:30;;;;;;;9.77;0.98;;;;;;;7.80;100.00;98447.47;4937557;28;20047;-90
2023/11/06 08:56:57;;;;;;;10.00;1.20;;;;;;;7.85;100.00;98457.44;4953603;28;20031;-96
2023/11/06 08:59:23;;;;;;;10.00;0.93;;;;;;;7.81;100.00;98462.22;4924601;28;20038;-96
2023/11/06 09:01:51;;;;;;;10.77;1.10;;;;;;;7.87;100.00;98466.00;4925309;28;20030;-96
2023/11/06 09:04:18;;;;;;;7.95;1.00;;;;;;;7.90;100.00;98463.00;4921689;29;20038;-96
2023/11/06 09:06:45;;;;;;;11.63;1.60;;;;;;;7.94;100.00;98469.53;4938112;28;20039;-96
2023/11/06 09:09:11;;;;;;;4.47;0.77;;;;;;;7.93;100.00;98466.09;4912564;29;20042;-96
2023/11/06 09:11:41;;;;;;;7.80;1.00;;;;;;;7.96;100.00;98480.72;4935316;28;20035;-92
2023/11/06 09:14:10;;;;;;;11.43;1.90;;;;;;;8.00;100.00;98486.44;4943116;28;20050;-91
2023/11/06 09:16:38;;;;;;;9.88;1.17;;;;;;;8.12;100.00;98486.84;4947194;28;20039;-96
2023/11/06 09:19:07;;;;;;;9.25;1.58;;;;;;;8.21;100.00;98493.66;4950163;28;20070;-96
2023/11/06 09:21:34;;;;;;;5.88;0.95;;;;;;;8.26;100.00;98496.59;4957753;28;20057;-96
2023/11/06 09:24:00;;;;;;;8.13;1.15;;;;;;;8.29;100.00;98509.41;4940092;29;20031;-96
2023/11/06 09:26:26;;;;;;;10.32;1.42;;;;;;;8.30;100.00;98494.41;4968783;28;20483;-96
2023/11/06 09:28:55;;;;;;;9.15;1.10;;;;;;;8.32;100.00;98498.50;4941382;28;20031;-96
2023/11/06 09:31:21;;;;;;;10.43;1.38;;;;;;;8.31;100.00;98504.75;4920412;29;20039;-96
2023/11/06 09:33:52;;;;;;;15.95;1.60;;;;;;;8.36;100.00;98504.22;4945036;28;20035;-96
2023/11/06 09:36:19;;;;;;;12.50;1.05;;;;;;;8.32;100.00;98509.03;4926848;28;20121;-95
2023/11/06 09:38:45;;;;;;;7.95;1.67;;;;;;;8.30;100.00;98518.09;4938452;29;20447;-96
2023/11/06 09:41:13;;;;;;;11.50;2.13;;;;;;;8.31;100.00;98515.28;4941474;28;20042;-96
2023/11/06 09:43:43;;;;;;;9.85;1.30;;;;;;;8.36;100.00;98525.28;4940164;29;20103;-96
2023/11/06 09:46:11;;;;;;;6.22;1.48;;;;;;;8.37;100.00;98532.19;4920612;28;20149;-96
2023/11/06 09:48:38;;;;;;;13.75;1.55;;;;;;;8.40;100.00;98539.75;4948998;28;20027;-96
2023/11/06 09:51:12;;;;;;;9.45;1.48;;;;;;;8.47;100.00;98533.75;4951008;28;20038;-96
2023/11/06 09:53:42;;;;;;;9.40;1.70;;;;;;;8.48;100.00;98535.38;4975072;28;20090;-96
2023/11/06 09:56:10;;;;;;;5.95;1.13;;;;;;;8.50;100.00;98538.69;4939022;28;20361;-96
2023/11/06 09:58:37;;;;;;;9.13;1.42;;;;;;;8.54;100.00;98545.22;4964805;28;20035;-95
2023/11/06 10:01:05;;;;;;;7.18;1.00;;;;;;;8.53;100.00;98541.78;4942567;28;20164;-96
2023/11/06 10:03:30;;;;;;;11.55;2.88;;;;;;;8.58;100.00;98550.97;4951005;28;20035;-96
2023/11/06 10:05:57;;;;;;;7.68;1.92;;;;;;;8.67;100.00;98550.72;4932044;29;20177;-96
2023/11/06 10:08:31;;;;;;;6.72;1.33;;;;;;;8.86;100.00;98559.09;4943152;28;20058;-96
2023/11/06 10:11:06;;;;;;;13.73;1.20;;;;;;;8.92;100.00;98562.81;4938570;29;20083;-90
2023/11/06 10:13:32;;;;;;;10.40;1.45;;;;;;;8.88;100.00;98559.75;4940959;28;20052;-89
2023/11/06 10:16:22;;;;;;;6.20;0.95;;;;;;;8.97;100.00;98562.28;4929891;29;20054;-96
2023/11/06 10:18:50;;;;;;;8.13;1.52;;;;;;;8.94;100.00;98555.56;4937784;28;20039;-96
2023/11/06 10:21:29;;;;;;;14.07;1.33;;;;;;;9.01;100.00;98572.31;4940865;28;20045;-96
2023/11/06 10:24:00;;;;;;;10.68;1.75;;;;;;;9.05;100.00;98567.47;4923726;28;20780;-87
2023/11/06 10:26:31;;;;;;;6.93;1.08;;;;;;;9.07;100.00;98578.66;4954416;28;20026;-90
2023/11/06 10:29:17;;;;;;;7.82;1.38;;;;;;;9.06;100.00;98569.13;4938037;28;20400;-90
2023/11/06 10:31:44;;;;;;;5.50;0.88;;;;;;;9.06;100.00;98577.84;4943039;28;20163;-95
2023/11/06 10:34:27;;;;;;;8.90;1.55;;;;;;;9.17;100.00;98573.94;4940196;28;20133;-96
2023/11/06 10:37:09;;;;;;;6.82;1.08;;;;;;;9.23;100.00;98582.13;4939519;28;20057;-88
2023/11/06 10:39:39;;;;;;;12.27;1.20;;;;;;;9.28;100.00;98588.50;4946597;29;20134;-90
2023/11/06 10:42:07;;;;;;;5.75;0.88;;;;;;;9.36;100.00;98587.59;4953896;28;20611;-96
2023/11/06 10:44:34;;;;;;;8.73;1.33;;;;;;;9.51;100.00;98599.91;4938563;28;20065;-96
2023/11/06 10:47:09;;;;;;;8.73;0.88;;;;;;;9.67;100.00;98591.81;4926134;28;20041;-90
2023/11/06 10:49:43;;;;;;;5.82;1.00;;;;;;;9.72;100.00;98578.06;4957733;28;20547;-87
2023/11/06 10:52:10;;;;;;;7.45;0.90;;;;;;;9.75;100.00;98604.09;4956324;28;20454;-95
2023/11/06 10:54:36;;;;;;;10.15;1.38;;;;;;;9.83;100.00;98599.69;4935145;28;20085;-95
2023/11/06 10:57:04;;;;;;;8.50;1.15;;;;;;;9.92;100.00;98602.03;4943323;28;20034;-96
2023/11/06 10:59:33;;;;;;;4.75;0.90;;;;;;;9.98;100.00;98602.31;4935452;29;20110;-96
2023/11/06 11:01:59;;;;;;;7.28;0.90;;;;;;;10.07;100.00;98608.28;4927080;28;20133;-95
2023/11/06 11:04:26;;;;;;;6.70;1.23;;;;;;;10.07;100.00;98606.47;4944286;28;20553;-96
2023/11/06 11:06:52;;;;;;;8.02;1.00;;;;;;;10.03;100.00;98619.22;4945290;28;20057;-95
2023/11/06 11:09:19;;;;;;;7.65;0.85;;;;;;;9.97;100.00;98614.69;4943799;28;20061;-96
2023/11/06 11:11:45;;;;;;;7.13;1.20;;;;;;;10.01;100.00;98618.59;4941875;28;20042;-95
2023/11/06 11:14:13;;;;;;;3.88;0.57;;;;;;;10.11;100.00;98626.22;4936050;28;20468;-96
2023/11/06 11:16:44;;;;;;;6.10;0.80;;;;;;;10.08;100.00;98618.66;4939857;29;20129;-90
2023/11/06 11:19:24;;;;;;;7.28;0.70;;;;;;;10.17;100.00;98628.13;4930436;28;20034;-90
2023/11/06 11:22:05;;;;;;;10.32;2.47;;;;;;;10.29;100.00;98625.78;4944151;29;20396;-96
2023/11/06 11:24:53;;;;;;;6.97;1.73;;;;;;;10.39;100.00;98629.94;4950449;28;20043;-96
2023/11/06 11:27:24;;;;;;;5.43;0.73;;;;;;;10.46;100.00;98630.03;4954850;28;20038;-96
2023/11/06 11:29:53;;;;;;;4.35;0.63;;;;;;;10.48;100.00;98628.06;4928159;28;20787;-96
2023/11/06 11:32:36;;;;;;;4.50;0.90;;;;;;;10.52;100.00;98624.84;4944698;28;20034;-96
2023/11/06 11:35:17;;;;;;;4.57;1.30;;;;;;;10.59;100.00;98626.72;4950856;28;20042;-96